sensor_id;sensor_type;location;lat;lon;timestamp;P1;durP1;ratioP1;P2;durP2;ratioP2
27847;SDS011;15212;48.830;8.730;2022-09-06T00:01:36;5.37;;;3.62;;
27847;SDS011;15212;48.830;8.730;2022-09-06T00:04:06;5.35;;;3.60;;
27847;SDS011;15212;48.830;8.730;2022-09-06T00:06:34;8.35;;;3.65;;
27847;SDS011;15212;48.830;8.730;2022-09-06T00:09:03;8.28;;;3.33;;
27847;SDS011;15212;48.830;8.730;2022-09-06T00:11:31;4.30;;;3.20;;
27847;SDS011;15212;48.830;8.730;2022-09-06T00:14:00;5.60;;;3.60;;
27847;SDS011;15212;48.830;8.730;2022-09-06T00:16:28;7.97;;;3.87;;
27847;SDS011;15212;48.830;8.730;2022-09-06T00:18:56;5.75;;;3.50;;
27847;SDS011;15212;48.830;8.730;2022-09-06T00:21:26;7.60;;;3.92;;
27847;SDS011;15212;48.830;8.730;2022-09-06T00:23:56;6.55;;;3.50;;
27847;SDS011;15212;48.830;8.730;2022-09-06T00:26:25;5.70;;;3.58;;
27847;SDS011;15212;48.830;8.730;2022-09-06T00:28:54;6.33;;;3.22;;
27847;SDS011;15212;48.830;8.730;2022-09-06T00:31:23;6.92;;;3.47;;
27847;SDS011;15212;48.830;8.730;2022-09-06T00:33:53;6.30;;;3.40;;
27847;SDS011;15212;48.830;8.730;2022-09-06T00:36:21;6.45;;;3.12;;
27847;SDS011;15212;48.830;8.730;2022-09-06T00:38:50;8.48;;;3.27;;
27847;SDS011;15212;48.830;8.730;2022-09-06T00:41:18;6.37;;;3.30;;
27847;SDS011;15212;48.830;8.730;2022-09-06T00:43:46;7.12;;;3.58;;
27847;SDS011;15212;48.830;8.730;2022-09-06T00:46:21;7.92;;;3.90;;
27847;SDS011;15212;48.830;8.730;2022-09-06T00:48:49;5.03;;;3.60;;
27847;SDS011;15212;48.830;8.730;2022-09-06T00:51:21;5.08;;;3.65;;
27847;SDS011;15212;48.830;8.730;2022-09-06T00:53:52;10.70;;;3.85;;
27847;SDS011;15212;48.830;8.730;2022-09-06T00:56:22;7.40;;;3.25;;
27847;SDS011;15212;48.830;8.730;2022-09-06T00:58:52;7.08;;;3.60;;
27847;SDS011;15212;48.830;8.730;2022-09-06T01:01:21;6.75;;;3.52;;
27847;SDS011;15212;48.830;8.730;2022-09-06T01:03:49;5.80;;;3.67;;
27847;SDS011;15212;48.830;8.730;2022-09-06T01:14:58;7.30;;;3.65;;
27847;SDS011;15212;48.830;8.730;2022-09-06T01:21:02;6.70;;;3.83;;
27847;SDS011;15212;48.830;8.730;2022-09-06T01:23:45;6.28;;;3.45;;
27847;SDS011;15212;48.830;8.730;2022-09-06T01:26:53;6.33;;;3.83;;
27847;SDS011;15212;48.830;8.730;2022-09-06T01:29:44;5.75;;;3.65;;
27847;SDS011;15212;48.830;8.730;2022-09-06T01:38:28;5.80;;;3.60;;
27847;SDS011;15212;48.830;8.730;2022-09-06T01:40:56;6.70;;;3.45;;
27847;SDS011;15212;48.830;8.730;2022-09-06T01:43:26;7.10;;;3.72;;
27847;SDS011;15212;48.830;8.730;2022-09-06T01:55:00;6.72;;;3.95;;
27847;SDS011;15212;48.830;8.730;2022-09-06T01:58:09;9.63;;;3.75;;
27847;SDS011;15212;48.830;8.730;2022-09-06T02:00:45;6.12;;;3.80;;
27847;SDS011;15212;48.830;8.730;2022-09-06T02:03:40;7.55;;;3.75;;
27847;SDS011;15212;48.830;8.730;2022-09-06T02:06:20;11.40;;;4.67;;
27847;SDS011;15212;48.830;8.730;2022-09-06T02:08:52;7.45;;;4.30;;
27847;SDS011;15212;48.830;8.730;2022-09-06T02:11:21;11.40;;;5.50;;
27847;SDS011;15212;48.830;8.730;2022-09-06T02:13:54;9.55;;;4.78;;
27847;SDS011;15212;48.830;8.730;2022-09-06T02:16:26;17.37;;;4.92;;
27847;SDS011;15212;48.830;8.730;2022-09-06T02:19:06;10.08;;;5.35;;
27847;SDS011;15212;48.830;8.730;2022-09-06T02:21:41;11.12;;;5.05;;
27847;SDS011;15212;48.830;8.730;2022-09-06T02:24:14;8.78;;;5.30;;
27847;SDS011;15212;48.830;8.730;2022-09-06T02:26:48;8.65;;;4.67;;
27847;SDS011;15212;48.830;8.730;2022-09-06T02:29:17;9.23;;;4.95;;
27847;SDS011;15212;48.830;8.730;2022-09-06T02:31:47;9.25;;;5.20;;
27847;SDS011;15212;48.830;8.730;2022-09-06T02:34:25;8.45;;;5.45;;
27847;SDS011;15212;48.830;8.730;2022-09-06T02:36:54;7.45;;;4.60;;
27847;SDS011;15212;48.830;8.730;2022-09-06T02:39:23;10.05;;;5.20;;
27847;SDS011;15212;48.830;8.730;2022-09-06T02:41:51;7.15;;;5.03;;
27847;SDS011;15212;48.830;8.730;2022-09-06T02:44:20;12.73;;;5.47;;
27847;SDS011;15212;48.830;8.730;2022-09-06T02:46:48;8.98;;;4.33;;
27847;SDS011;15212;48.830;8.730;2022-09-06T02:49:17;9.45;;;5.08;;
27847;SDS011;15212;48.830;8.730;2022-09-06T02:51:45;9.48;;;5.12;;
27847;SDS011;15212;48.830;8.730;2022-09-06T02:54:14;8.05;;;5.20;;
27847;SDS011;15212;48.830;8.730;2022-09-06T02:56:42;11.70;;;5.20;;
27847;SDS011;15212;48.830;8.730;2022-09-06T02:59:10;10.20;;;5.17;;
27847;SDS011;15212;48.830;8.730;2022-09-06T03:01:39;10.93;;;5.78;;
27847;SDS011;15212;48.830;8.730;2022-09-06T03:04:07;6.62;;;5.28;;
27847;SDS011;15212;48.830;8.730;2022-09-06T03:06:35;9.33;;;5.58;;
27847;SDS011;15212;48.830;8.730;2022-09-06T03:09:04;9.45;;;5.80;;
27847;SDS011;15212;48.830;8.730;2022-09-06T03:11:33;9.90;;;5.87;;
27847;SDS011;15212;48.830;8.730;2022-09-06T03:14:03;8.85;;;5.37;;
27847;SDS011;15212;48.830;8.730;2022-09-06T03:16:31;8.90;;;5.62;;
27847;SDS011;15212;48.830;8.730;2022-09-06T03:18:59;10.95;;;5.72;;
27847;SDS011;15212;48.830;8.730;2022-09-06T03:21:28;8.38;;;5.40;;
27847;SDS011;15212;48.830;8.730;2022-09-06T03:23:56;9.10;;;5.70;;
27847;SDS011;15212;48.830;8.730;2022-09-06T03:26:25;7.80;;;5.20;;
27847;SDS011;15212;48.830;8.730;2022-09-06T03:28:55;9.55;;;5.53;;
27847;SDS011;15212;48.830;8.730;2022-09-06T03:31:23;10.30;;;5.72;;
27847;SDS011;15212;48.830;8.730;2022-09-06T03:33:52;7.92;;;5.60;;
27847;SDS011;15212;48.830;8.730;2022-09-06T03:36:20;7.22;;;5.17;;
27847;SDS011;15212;48.830;8.730;2022-09-06T03:38:48;10.28;;;5.47;;
27847;SDS011;15212;48.830;8.730;2022-09-06T03:41:18;11.33;;;5.12;;
27847;SDS011;15212;48.830;8.730;2022-09-06T03:43:47;7.60;;;5.28;;
27847;SDS011;15212;48.830;8.730;2022-09-06T03:46:15;6.50;;;4.92;;
27847;SDS011;15212;48.830;8.730;2022-09-06T03:48:44;8.23;;;4.65;;
27847;SDS011;15212;48.830;8.730;2022-09-06T03:51:12;7.55;;;5.03;;
27847;SDS011;15212;48.830;8.730;2022-09-06T03:53:41;7.17;;;5.00;;
27847;SDS011;15212;48.830;8.730;2022-09-06T03:56:09;9.48;;;5.33;;
27847;SDS011;15212;48.830;8.730;2022-09-06T03:58:37;6.20;;;4.95;;
27847;SDS011;15212;48.830;8.730;2022-09-06T04:01:07;12.00;;;6.15;;
27847;SDS011;15212;48.830;8.730;2022-09-06T04:03:38;7.17;;;5.28;;
27847;SDS011;15212;48.830;8.730;2022-09-06T04:06:07;12.55;;;5.25;;
27847;SDS011;15212;48.830;8.730;2022-09-06T04:08:35;6.12;;;4.87;;
27847;SDS011;15212;48.830;8.730;2022-09-06T04:11:05;10.20;;;5.15;;
27847;SDS011;15212;48.830;8.730;2022-09-06T04:13:34;11.43;;;5.50;;
27847;SDS011;15212;48.830;8.730;2022-09-06T04:16:03;8.18;;;5.60;;
27847;SDS011;15212;48.830;8.730;2022-09-06T04:18:32;8.78;;;4.83;;
27847;SDS011;15212;48.830;8.730;2022-09-06T04:21:01;9.20;;;5.50;;
27847;SDS011;15212;48.830;8.730;2022-09-06T04:23:29;7.87;;;5.47;;
27847;SDS011;15212;48.830;8.730;2022-09-06T04:25:58;9.23;;;5.28;;
27847;SDS011;15212;48.830;8.730;2022-09-06T04:28:26;7.60;;;4.95;;
27847;SDS011;15212;48.830;8.730;2022-09-06T04:31:01;9.08;;;5.03;;
27847;SDS011;15212;48.830;8.730;2022-09-06T04:33:32;9.23;;;5.40;;
27847;SDS011;15212;48.830;8.730;2022-09-06T04:36:07;6.80;;;5.53;;
27847;SDS011;15212;48.830;8.730;2022-09-06T04:38:42;7.60;;;5.10;;
27847;SDS011;15212;48.830;8.730;2022-09-06T04:41:10;9.13;;;5.28;;
27847;SDS011;15212;48.830;8.730;2022-09-06T04:43:41;7.33;;;5.08;;
27847;SDS011;15212;48.830;8.730;2022-09-06T04:46:20;8.08;;;5.25;;
27847;SDS011;15212;48.830;8.730;2022-09-06T04:48:50;6.55;;;4.95;;
27847;SDS011;15212;48.830;8.730;2022-09-06T04:51:20;6.97;;;5.28;;
27847;SDS011;15212;48.830;8.730;2022-09-06T04:53:49;8.78;;;5.45;;
27847;SDS011;15212;48.830;8.730;2022-09-06T04:56:19;9.38;;;5.50;;
27847;SDS011;15212;48.830;8.730;2022-09-06T04:58:50;7.22;;;5.35;;
27847;SDS011;15212;48.830;8.730;2022-09-06T05:01:21;7.58;;;5.53;;
27847;SDS011;15212;48.830;8.730;2022-09-06T05:03:51;7.67;;;4.97;;
27847;SDS011;15212;48.830;8.730;2022-09-06T05:06:20;8.08;;;5.17;;
27847;SDS011;15212;48.830;8.730;2022-09-06T05:08:50;7.70;;;5.10;;
27847;SDS011;15212;48.830;8.730;2022-09-06T05:11:19;6.28;;;5.30;;
27847;SDS011;15212;48.830;8.730;2022-09-06T05:13:47;8.20;;;5.20;;
27847;SDS011;15212;48.830;8.730;2022-09-06T05:16:15;9.48;;;4.92;;
27847;SDS011;15212;48.830;8.730;2022-09-06T05:18:44;7.83;;;4.92;;
27847;SDS011;15212;48.830;8.730;2022-09-06T05:21:12;8.48;;;5.15;;
27847;SDS011;15212;48.830;8.730;2022-09-06T05:23:41;11.30;;;5.17;;
27847;SDS011;15212;48.830;8.730;2022-09-06T05:26:09;7.35;;;5.15;;
27847;SDS011;15212;48.830;8.730;2022-09-06T05:28:38;7.17;;;5.12;;
27847;SDS011;15212;48.830;8.730;2022-09-06T05:31:11;13.08;;;5.53;;
27847;SDS011;15212;48.830;8.730;2022-09-06T05:33:38;8.20;;;5.03;;
27847;SDS011;15212;48.830;8.730;2022-09-06T05:36:07;8.23;;;5.40;;
27847;SDS011;15212;48.830;8.730;2022-09-06T05:38:35;10.93;;;5.80;;
27847;SDS011;15212;48.830;8.730;2022-09-06T05:41:04;6.85;;;5.37;;
27847;SDS011;15212;48.830;8.730;2022-09-06T05:43:32;7.20;;;4.80;;
27847;SDS011;15212;48.830;8.730;2022-09-06T05:46:00;11.00;;;5.70;;
27847;SDS011;15212;48.830;8.730;2022-09-06T05:48:29;9.45;;;5.53;;
27847;SDS011;15212;48.830;8.730;2022-09-06T05:50:59;13.20;;;6.45;;
27847;SDS011;15212;48.830;8.730;2022-09-06T05:53:38;21.95;;;7.10;;
27847;SDS011;15212;48.830;8.730;2022-09-06T05:56:09;6.58;;;5.45;;
27847;SDS011;15212;48.830;8.730;2022-09-06T05:58:40;12.85;;;5.62;;
27847;SDS011;15212;48.830;8.730;2022-09-06T06:01:16;8.63;;;5.42;;
27847;SDS011;15212;48.830;8.730;2022-09-06T06:03:53;7.20;;;5.83;;
27847;SDS011;15212;48.830;8.730;2022-09-06T06:06:26;8.35;;;5.47;;
27847;SDS011;15212;48.830;8.730;2022-09-06T06:08:57;8.78;;;5.78;;
27847;SDS011;15212;48.830;8.730;2022-09-06T06:11:26;8.48;;;5.50;;
27847;SDS011;15212;48.830;8.730;2022-09-06T06:13:55;8.18;;;5.15;;
27847;SDS011;15212;48.830;8.730;2022-09-06T06:16:24;7.80;;;5.42;;
27847;SDS011;15212;48.830;8.730;2022-09-06T06:18:52;7.30;;;5.30;;
27847;SDS011;15212;48.830;8.730;2022-09-06T06:21:22;9.83;;;5.65;;
27847;SDS011;15212;48.830;8.730;2022-09-06T06:23:53;7.67;;;5.10;;
27847;SDS011;15212;48.830;8.730;2022-09-06T06:26:24;9.93;;;4.97;;
27847;SDS011;15212;48.830;8.730;2022-09-06T06:28:56;7.12;;;5.40;;
27847;SDS011;15212;48.830;8.730;2022-09-06T06:31:27;7.72;;;4.92;;
27847;SDS011;15212;48.830;8.730;2022-09-06T06:33:56;9.05;;;4.97;;
27847;SDS011;15212;48.830;8.730;2022-09-06T06:36:27;10.75;;;4.70;;
27847;SDS011;15212;48.830;8.730;2022-09-06T06:38:58;7.90;;;4.87;;
27847;SDS011;15212;48.830;8.730;2022-09-06T06:41:29;9.45;;;5.10;;
27847;SDS011;15212;48.830;8.730;2022-09-06T06:44:00;8.73;;;4.75;;
27847;SDS011;15212;48.830;8.730;2022-09-06T06:46:34;9.80;;;5.08;;
27847;SDS011;15212;48.830;8.730;2022-09-06T06:49:03;7.92;;;4.85;;
27847;SDS011;15212;48.830;8.730;2022-09-06T06:51:33;6.00;;;4.75;;
27847;SDS011;15212;48.830;8.730;2022-09-06T06:54:02;8.75;;;4.50;;
27847;SDS011;15212;48.830;8.730;2022-09-06T06:56:33;7.28;;;5.00;;
27847;SDS011;15212;48.830;8.730;2022-09-06T06:59:05;6.35;;;4.67;;
27847;SDS011;15212;48.830;8.730;2022-09-06T07:01:34;7.37;;;4.45;;
27847;SDS011;15212;48.830;8.730;2022-09-06T07:04:04;8.28;;;4.95;;
27847;SDS011;15212;48.830;8.730;2022-09-06T07:06:47;9.48;;;4.92;;
27847;SDS011;15212;48.830;8.730;2022-09-06T07:09:19;8.70;;;4.60;;
27847;SDS011;15212;48.830;8.730;2022-09-06T07:11:48;8.43;;;5.35;;
27847;SDS011;15212;48.830;8.730;2022-09-06T07:14:17;9.73;;;4.40;;
27847;SDS011;15212;48.830;8.730;2022-09-06T07:16:45;5.75;;;4.60;;
27847;SDS011;15212;48.830;8.730;2022-09-06T07:19:14;8.98;;;4.70;;
27847;SDS011;15212;48.830;8.730;2022-09-06T07:21:42;9.48;;;4.40;;
27847;SDS011;15212;48.830;8.730;2022-09-06T07:24:10;7.85;;;4.75;;
27847;SDS011;15212;48.830;8.730;2022-09-06T07:26:39;6.80;;;4.45;;
27847;SDS011;15212;48.830;8.730;2022-09-06T07:29:08;9.23;;;4.28;;
27847;SDS011;15212;48.830;8.730;2022-09-06T07:31:36;5.70;;;4.35;;
27847;SDS011;15212;48.830;8.730;2022-09-06T07:34:05;8.40;;;4.25;;
27847;SDS011;15212;48.830;8.730;2022-09-06T07:36:33;5.22;;;4.20;;
27847;SDS011;15212;48.830;8.730;2022-09-06T07:39:01;6.00;;;3.87;;
27847;SDS011;15212;48.830;8.730;2022-09-06T07:41:30;6.40;;;4.15;;
27847;SDS011;15212;48.830;8.730;2022-09-06T07:43:58;6.78;;;3.75;;
27847;SDS011;15212;48.830;8.730;2022-09-06T07:46:27;7.53;;;4.37;;
27847;SDS011;15212;48.830;8.730;2022-09-06T07:48:55;6.50;;;4.40;;
27847;SDS011;15212;48.830;8.730;2022-09-06T07:51:23;6.78;;;4.22;;
27847;SDS011;15212;48.830;8.730;2022-09-06T07:53:53;12.78;;;4.45;;
27847;SDS011;15212;48.830;8.730;2022-09-06T07:56:22;6.42;;;3.87;;
27847;SDS011;15212;48.830;8.730;2022-09-06T07:58:51;5.28;;;3.45;;
27847;SDS011;15212;48.830;8.730;2022-09-06T08:01:27;7.75;;;4.33;;
27847;SDS011;15212;48.830;8.730;2022-09-06T08:04:00;6.83;;;3.60;;
27847;SDS011;15212;48.830;8.730;2022-09-06T08:06:32;8.65;;;4.17;;
27847;SDS011;15212;48.830;8.730;2022-09-06T08:09:03;5.80;;;3.40;;
27847;SDS011;15212;48.830;8.730;2022-09-06T08:11:34;5.45;;;4.03;;
27847;SDS011;15212;48.830;8.730;2022-09-06T08:14:05;7.17;;;3.50;;
27847;SDS011;15212;48.830;8.730;2022-09-06T08:16:35;6.78;;;4.35;;
27847;SDS011;15212;48.830;8.730;2022-09-06T08:19:04;7.90;;;4.45;;
27847;SDS011;15212;48.830;8.730;2022-09-06T08:21:35;7.47;;;4.28;;
27847;SDS011;15212;48.830;8.730;2022-09-06T08:24:04;5.97;;;3.62;;
27847;SDS011;15212;48.830;8.730;2022-09-06T08:26:36;7.22;;;3.80;;
27847;SDS011;15212;48.830;8.730;2022-09-06T08:29:07;10.08;;;3.65;;
27847;SDS011;15212;48.830;8.730;2022-09-06T08:31:38;6.60;;;4.15;;
27847;SDS011;15212;48.830;8.730;2022-09-06T08:34:09;5.08;;;3.50;;
27847;SDS011;15212;48.830;8.730;2022-09-06T08:36:39;6.35;;;3.62;;
27847;SDS011;15212;48.830;8.730;2022-09-06T08:39:10;6.20;;;3.67;;
27847;SDS011;15212;48.830;8.730;2022-09-06T08:41:49;7.90;;;3.75;;
27847;SDS011;15212;48.830;8.730;2022-09-06T08:44:37;7.35;;;3.50;;
27847;SDS011;15212;48.830;8.730;2022-09-06T08:47:10;7.20;;;3.67;;
27847;SDS011;15212;48.830;8.730;2022-09-06T08:49:49;5.40;;;3.80;;
27847;SDS011;15212;48.830;8.730;2022-09-06T08:52:34;7.72;;;4.17;;
27847;SDS011;15212;48.830;8.730;2022-09-06T08:55:35;4.97;;;3.42;;
27847;SDS011;15212;48.830;8.730;2022-09-06T08:58:14;7.22;;;3.52;;
27847;SDS011;15212;48.830;8.730;2022-09-06T09:01:18;5.90;;;3.47;;
27847;SDS011;15212;48.830;8.730;2022-09-06T09:03:54;7.05;;;3.58;;
27847;SDS011;15212;48.830;8.730;2022-09-06T09:06:24;8.03;;;4.12;;
27847;SDS011;15212;48.830;8.730;2022-09-06T09:11:34;9.55;;;3.70;;
27847;SDS011;15212;48.830;8.730;2022-09-06T09:14:07;7.33;;;3.75;;
27847;SDS011;15212;48.830;8.730;2022-09-06T09:16:40;7.65;;;3.50;;
27847;SDS011;15212;48.830;8.730;2022-09-06T09:19:09;7.55;;;3.65;;
27847;SDS011;15212;48.830;8.730;2022-09-06T09:21:38;7.25;;;3.70;;
27847;SDS011;15212;48.830;8.730;2022-09-06T09:24:07;6.92;;;4.17;;
27847;SDS011;15212;48.830;8.730;2022-09-06T09:32:39;5.42;;;3.45;;
27847;SDS011;15212;48.830;8.730;2022-09-06T09:35:24;7.55;;;3.30;;
27847;SDS011;15212;48.830;8.730;2022-09-06T09:38:08;8.80;;;3.62;;
27847;SDS011;15212;48.830;8.730;2022-09-06T09:40:55;5.97;;;3.10;;
27847;SDS011;15212;48.830;8.730;2022-09-06T09:43:32;9.30;;;3.55;;
27847;SDS011;15212;48.830;8.730;2022-09-06T09:51:29;9.45;;;3.87;;
27847;SDS011;15212;48.830;8.730;2022-09-06T09:54:02;9.50;;;3.35;;
27847;SDS011;15212;48.830;8.730;2022-09-06T09:56:36;6.80;;;3.17;;
27847;SDS011;15212;48.830;8.730;2022-09-06T09:59:20;8.65;;;2.80;;
27847;SDS011;15212;48.830;8.730;2022-09-06T10:01:57;7.00;;;3.42;;
27847;SDS011;15212;48.830;8.730;2022-09-06T10:04:30;7.40;;;3.72;;
27847;SDS011;15212;48.830;8.730;2022-09-06T10:07:06;9.38;;;3.62;;
27847;SDS011;15212;48.830;8.730;2022-09-06T10:09:45;7.70;;;3.40;;
27847;SDS011;15212;48.830;8.730;2022-09-06T10:12:14;6.50;;;3.20;;
27847;SDS011;15212;48.830;8.730;2022-09-06T10:15:00;9.08;;;3.20;;
27847;SDS011;15212;48.830;8.730;2022-09-06T10:17:36;8.80;;;3.45;;
27847;SDS011;15212;48.830;8.730;2022-09-06T10:20:13;8.70;;;3.45;;
27847;SDS011;15212;48.830;8.730;2022-09-06T10:23:05;7.17;;;3.20;;
27847;SDS011;15212;48.830;8.730;2022-09-06T10:25:37;12.65;;;3.77;;
27847;SDS011;15212;48.830;8.730;2022-09-06T10:31:17;12.37;;;4.22;;
27847;SDS011;15212;48.830;8.730;2022-09-06T10:34:09;10.95;;;4.42;;
27847;SDS011;15212;48.830;8.730;2022-09-06T10:37:05;12.28;;;3.70;;
27847;SDS011;15212;48.830;8.730;2022-09-06T10:40:04;10.68;;;3.70;;
27847;SDS011;15212;48.830;8.730;2022-09-06T10:42:50;7.25;;;3.30;;
27847;SDS011;15212;48.830;8.730;2022-09-06T10:53:54;9.33;;;3.20;;
27847;SDS011;15212;48.830;8.730;2022-09-06T10:56:53;11.22;;;3.50;;
27847;SDS011;15212;48.830;8.730;2022-09-06T10:59:53;9.08;;;3.62;;
27847;SDS011;15212;48.830;8.730;2022-09-06T11:07:44;9.28;;;3.37;;
27847;SDS011;15212;48.830;8.730;2022-09-06T11:10:23;13.25;;;3.50;;
27847;SDS011;15212;48.830;8.730;2022-09-06T11:13:05;8.50;;;3.40;;
27847;SDS011;15212;48.830;8.730;2022-09-06T11:19:02;12.28;;;3.70;;
27847;SDS011;15212;48.830;8.730;2022-09-06T11:22:05;8.18;;;2.98;;
27847;SDS011;15212;48.830;8.730;2022-09-06T11:27:58;9.45;;;3.15;;
27847;SDS011;15212;48.830;8.730;2022-09-06T11:30:28;9.88;;;3.72;;
27847;SDS011;15212;48.830;8.730;2022-09-06T11:33:06;12.93;;;3.72;;
27847;SDS011;15212;48.830;8.730;2022-09-06T11:36:15;8.90;;;3.00;;
27847;SDS011;15212;48.830;8.730;2022-09-06T11:38:53;6.20;;;2.90;;
27847;SDS011;15212;48.830;8.730;2022-09-06T11:41:28;12.53;;;3.00;;
27847;SDS011;15212;48.830;8.730;2022-09-06T11:44:00;10.38;;;3.10;;
27847;SDS011;15212;48.830;8.730;2022-09-06T11:49:28;10.60;;;3.27;;
27847;SDS011;15212;48.830;8.730;2022-09-06T11:52:00;11.12;;;2.85;;
27847;SDS011;15212;48.830;8.730;2022-09-06T11:54:49;11.10;;;3.00;;
27847;SDS011;15212;48.830;8.730;2022-09-06T11:57:19;9.93;;;3.22;;
27847;SDS011;15212;48.830;8.730;2022-09-06T11:59:56;7.72;;;3.55;;
27847;SDS011;15212;48.830;8.730;2022-09-06T12:02:35;10.50;;;3.17;;
27847;SDS011;15212;48.830;8.730;2022-09-06T12:05:09;17.07;;;4.80;;
27847;SDS011;15212;48.830;8.730;2022-09-06T12:10:56;9.20;;;3.17;;
27847;SDS011;15212;48.830;8.730;2022-09-06T12:19:48;8.90;;;2.70;;
27847;SDS011;15212;48.830;8.730;2022-09-06T12:28:01;9.83;;;3.55;;
27847;SDS011;15212;48.830;8.730;2022-09-06T12:30:36;10.43;;;3.35;;
27847;SDS011;15212;48.830;8.730;2022-09-06T12:35:45;11.20;;;3.52;;
27847;SDS011;15212;48.830;8.730;2022-09-06T12:38:14;8.78;;;3.50;;
27847;SDS011;15212;48.830;8.730;2022-09-06T12:40:46;12.23;;;3.67;;
27847;SDS011;15212;48.830;8.730;2022-09-06T12:43:19;12.40;;;3.47;;
27847;SDS011;15212;48.830;8.730;2022-09-06T12:45:48;7.50;;;3.30;;
27847;SDS011;15212;48.830;8.730;2022-09-06T12:48:25;12.37;;;3.50;;
27847;SDS011;15212;48.830;8.730;2022-09-06T12:51:05;7.55;;;3.37;;
27847;SDS011;15212;48.830;8.730;2022-09-06T12:53:32;8.18;;;3.40;;
27847;SDS011;15212;48.830;8.730;2022-09-06T12:56:02;6.70;;;2.55;;
27847;SDS011;15212;48.830;8.730;2022-09-06T12:58:34;6.47;;;2.33;;
27847;SDS011;15212;48.830;8.730;2022-09-06T13:03:56;4.50;;;1.52;;
27847;SDS011;15212;48.830;8.730;2022-09-06T13:06:32;4.47;;;1.90;;
27847;SDS011;15212;48.830;8.730;2022-09-06T13:09:03;6.03;;;1.67;;
27847;SDS011;15212;48.830;8.730;2022-09-06T13:11:39;4.53;;;1.60;;
27847;SDS011;15212;48.830;8.730;2022-09-06T13:14:22;8.38;;;1.80;;
27847;SDS011;15212;48.830;8.730;2022-09-06T13:16:53;8.13;;;1.67;;
27847;SDS011;15212;48.830;8.730;2022-09-06T13:19:35;5.97;;;1.50;;
27847;SDS011;15212;48.830;8.730;2022-09-06T13:22:08;6.70;;;1.52;;
27847;SDS011;15212;48.830;8.730;2022-09-06T13:24:41;5.15;;;1.62;;
27847;SDS011;15212;48.830;8.730;2022-09-06T13:27:22;4.03;;;1.55;;
27847;SDS011;15212;48.830;8.730;2022-09-06T13:30:05;2.85;;;1.50;;
27847;SDS011;15212;48.830;8.730;2022-09-06T13:32:36;5.17;;;1.50;;
27847;SDS011;15212;48.830;8.730;2022-09-06T13:35:09;6.08;;;1.42;;
27847;SDS011;15212;48.830;8.730;2022-09-06T13:37:41;3.20;;;1.60;;
27847;SDS011;15212;48.830;8.730;2022-09-06T13:43:12;4.42;;;1.80;;
27847;SDS011;15212;48.830;8.730;2022-09-06T13:45:41;5.85;;;2.12;;
27847;SDS011;15212;48.830;8.730;2022-09-06T13:48:11;11.08;;;2.20;;
27847;SDS011;15212;48.830;8.730;2022-09-06T13:50:40;5.72;;;1.92;;
27847;SDS011;15212;48.830;8.730;2022-09-06T13:53:08;10.35;;;2.47;;
27847;SDS011;15212;48.830;8.730;2022-09-06T13:55:37;17.67;;;3.77;;
27847;SDS011;15212;48.830;8.730;2022-09-06T13:58:06;8.33;;;3.27;;
27847;SDS011;15212;48.830;8.730;2022-09-06T14:00:34;16.73;;;3.35;;
27847;SDS011;15212;48.830;8.730;2022-09-06T14:03:09;8.70;;;3.77;;
27847;SDS011;15212;48.830;8.730;2022-09-06T14:05:42;13.68;;;4.15;;
27847;SDS011;15212;48.830;8.730;2022-09-06T14:08:10;14.13;;;4.17;;
27847;SDS011;15212;48.830;8.730;2022-09-06T14:10:38;10.40;;;3.90;;
27847;SDS011;15212;48.830;8.730;2022-09-06T14:13:07;9.18;;;3.22;;
27847;SDS011;15212;48.830;8.730;2022-09-06T14:15:37;5.33;;;3.15;;
27847;SDS011;15212;48.830;8.730;2022-09-06T14:18:05;8.80;;;3.60;;
27847;SDS011;15212;48.830;8.730;2022-09-06T14:20:34;9.93;;;3.62;;
27847;SDS011;15212;48.830;8.730;2022-09-06T14:23:02;9.43;;;3.70;;
27847;SDS011;15212;48.830;8.730;2022-09-06T14:25:36;12.10;;;4.95;;
27847;SDS011;15212;48.830;8.730;2022-09-06T14:28:03;11.15;;;4.53;;
27847;SDS011;15212;48.830;8.730;2022-09-06T14:30:31;15.10;;;5.08;;
27847;SDS011;15212;48.830;8.730;2022-09-06T14:33:00;12.20;;;4.78;;
27847;SDS011;15212;48.830;8.730;2022-09-06T14:35:29;8.53;;;4.92;;
27847;SDS011;15212;48.830;8.730;2022-09-06T14:37:58;11.50;;;4.53;;
27847;SDS011;15212;48.830;8.730;2022-09-06T14:40:26;11.18;;;4.37;;
27847;SDS011;15212;48.830;8.730;2022-09-06T14:42:55;7.78;;;3.92;;
27847;SDS011;15212;48.830;8.730;2022-09-06T14:45:23;8.48;;;3.70;;
27847;SDS011;15212;48.830;8.730;2022-09-06T14:47:52;10.98;;;3.72;;
27847;SDS011;15212;48.830;8.730;2022-09-06T14:50:20;9.58;;;3.62;;
27847;SDS011;15212;48.830;8.730;2022-09-06T14:52:49;5.72;;;2.90;;
27847;SDS011;15212;48.830;8.730;2022-09-06T14:55:17;11.70;;;3.33;;
27847;SDS011;15212;48.830;8.730;2022-09-06T14:57:46;10.35;;;3.20;;
27847;SDS011;15212;48.830;8.730;2022-09-06T15:00:15;8.53;;;3.05;;
27847;SDS011;15212;48.830;8.730;2022-09-06T15:02:43;7.83;;;3.27;;
27847;SDS011;15212;48.830;8.730;2022-09-06T15:05:12;5.92;;;2.92;;
27847;SDS011;15212;48.830;8.730;2022-09-06T15:07:40;7.22;;;3.55;;
27847;SDS011;15212;48.830;8.730;2022-09-06T15:10:09;7.45;;;3.25;;
27847;SDS011;15212;48.830;8.730;2022-09-06T15:12:37;7.15;;;2.92;;
27847;SDS011;15212;48.830;8.730;2022-09-06T15:15:06;4.67;;;3.05;;
27847;SDS011;15212;48.830;8.730;2022-09-06T15:17:35;9.05;;;3.60;;
27847;SDS011;15212;48.830;8.730;2022-09-06T15:20:03;7.03;;;3.10;;
27847;SDS011;15212;48.830;8.730;2022-09-06T15:22:32;8.05;;;3.45;;
27847;SDS011;15212;48.830;8.730;2022-09-06T15:25:01;6.85;;;3.52;;
27847;SDS011;15212;48.830;8.730;2022-09-06T15:27:30;7.83;;;3.40;;
27847;SDS011;15212;48.830;8.730;2022-09-06T15:29:58;7.83;;;3.42;;
27847;SDS011;15212;48.830;8.730;2022-09-06T15:32:27;7.83;;;3.67;;
27847;SDS011;15212;48.830;8.730;2022-09-06T15:34:55;7.67;;;3.62;;
27847;SDS011;15212;48.830;8.730;2022-09-06T15:37:24;8.23;;;3.83;;
27847;SDS011;15212;48.830;8.730;2022-09-06T15:39:53;8.73;;;3.45;;
27847;SDS011;15212;48.830;8.730;2022-09-06T15:42:21;5.92;;;3.60;;
27847;SDS011;15212;48.830;8.730;2022-09-06T15:44:49;6.22;;;3.20;;
27847;SDS011;15212;48.830;8.730;2022-09-06T15:47:18;7.97;;;3.80;;
27847;SDS011;15212;48.830;8.730;2022-09-06T15:49:46;6.35;;;3.55;;
27847;SDS011;15212;48.830;8.730;2022-09-06T15:52:15;6.05;;;3.35;;
27847;SDS011;15212;48.830;8.730;2022-09-06T15:54:44;9.38;;;3.45;;
27847;SDS011;15212;48.830;8.730;2022-09-06T15:57:30;6.47;;;2.92;;
27847;SDS011;15212;48.830;8.730;2022-09-06T15:59:58;6.08;;;2.85;;
27847;SDS011;15212;48.830;8.730;2022-09-06T16:02:27;6.30;;;2.77;;
27847;SDS011;15212;48.830;8.730;2022-09-06T16:04:56;11.95;;;3.52;;
27847;SDS011;15212;48.830;8.730;2022-09-06T16:07:24;6.78;;;2.90;;
27847;SDS011;15212;48.830;8.730;2022-09-06T16:09:53;5.55;;;2.65;;
27847;SDS011;15212;48.830;8.730;2022-09-06T16:12:21;7.87;;;2.72;;
27847;SDS011;15212;48.830;8.730;2022-09-06T16:14:49;6.17;;;2.77;;
27847;SDS011;15212;48.830;8.730;2022-09-06T16:17:18;6.22;;;3.05;;
27847;SDS011;15212;48.830;8.730;2022-09-06T16:19:46;7.15;;;2.90;;
27847;SDS011;15212;48.830;8.730;2022-09-06T16:22:15;6.62;;;2.92;;
27847;SDS011;15212;48.830;8.730;2022-09-06T16:24:43;6.78;;;2.87;;
27847;SDS011;15212;48.830;8.730;2022-09-06T16:27:11;11.05;;;3.33;;
27847;SDS011;15212;48.830;8.730;2022-09-06T16:29:40;5.47;;;2.98;;
27847;SDS011;15212;48.830;8.730;2022-09-06T16:32:10;6.42;;;3.27;;
27847;SDS011;15212;48.830;8.730;2022-09-06T16:34:39;8.48;;;2.98;;
27847;SDS011;15212;48.830;8.730;2022-09-06T16:37:07;5.33;;;3.30;;
27847;SDS011;15212;48.830;8.730;2022-09-06T16:39:35;7.35;;;2.87;;
27847;SDS011;15212;48.830;8.730;2022-09-06T16:42:04;4.87;;;3.20;;
27847;SDS011;15212;48.830;8.730;2022-09-06T16:44:33;7.50;;;2.83;;
27847;SDS011;15212;48.830;8.730;2022-09-06T16:47:02;4.95;;;3.00;;